Itaguacu, Brazil
Current Conditions -  °F | °C
As of 9:00 AM on Thursday 30 Oct 2014 (Local Time) from SBQV Reporting Station
Overcast Overcast  
Wind Chill: 70°   Ceiling: 7000
Heat Index: 70°   Visibility: 6mi
Dew Point: 68°   Wind: 9mph
Humidity: 94%   Direction: 20°NNE
Pressure: 30.12"   Gusts: NA
Location:  13.6°S, 40.85°W
Report Text: SBQV 301200Z 02008KT 9999 SCT012 OVC070 21/20 Q1020
Loading
Personal Weather Stations






























Interactive Weather Map
Tropical Storm Tracking
New forecast layout! Learn more

10-Day Weather Forecast

Advertisements
Track Severe Weather on mobile